sensor_id;sensor_type;location;lat;lon;timestamp;pressure;altitude;pressure_sealevel;temperature;humidity
36798;BME280;22748;8.426;99.512;2023-01-05T00:01:01;100908.50;;;27.73;64.84
36798;BME280;22748;8.426;99.512;2023-01-05T00:03:31;100905.63;;;27.74;64.98
36798;BME280;22748;8.426;99.512;2023-01-05T00:06:02;100905.63;;;27.74;65.33
36798;BME280;22748;8.426;99.512;2023-01-05T00:08:34;100906.66;;;27.73;65.14
36798;BME280;22748;8.426;99.512;2023-01-05T00:11:05;100914.88;;;27.72;65.07
36798;BME280;22748;8.426;99.512;2023-01-05T00:13:49;100923.78;;;27.72;65.51
36798;BME280;22748;8.426;99.512;2023-01-05T00:16:32;100924.78;;;27.71;65.49
36798;BME280;22748;8.426;99.512;2023-01-05T00:19:14;100928.69;;;27.68;65.10
36798;BME280;22748;8.426;99.512;2023-01-05T00:21:57;100945.16;;;27.65;65.40
36798;BME280;22748;8.426;99.512;2023-01-05T00:24:41;100949.94;;;27.63;65.74
36798;BME280;22748;8.426;99.512;2023-01-05T00:27:11;100947.63;;;27.60;65.46
36798;BME280;22748;8.426;99.512;2023-01-05T00:29:41;100948.00;;;27.57;66.02
36798;BME280;22748;8.426;99.512;2023-01-05T00:32:11;100952.53;;;27.57;65.76
36798;BME280;22748;8.426;99.512;2023-01-05T00:34:40;100956.88;;;27.58;66.42
36798;BME280;22748;8.426;99.512;2023-01-05T00:37:10;100956.94;;;27.43;66.52
36798;BME280;22748;8.426;99.512;2023-01-05T00:39:42;100965.00;;;27.43;66.88
36798;BME280;22748;8.426;99.512;2023-01-05T00:42:12;100958.22;;;27.47;66.67
36798;BME280;22748;8.426;99.512;2023-01-05T00:44:43;100966.09;;;27.48;66.91
36798;BME280;22748;8.426;99.512;2023-01-05T00:47:12;100963.59;;;27.47;66.96
36798;BME280;22748;8.426;99.512;2023-01-05T00:49:43;100967.75;;;27.49;66.63
36798;BME280;22748;8.426;99.512;2023-01-05T00:52:13;100965.69;;;27.52;67.32
36798;BME280;22748;8.426;99.512;2023-01-05T00:54:44;100976.88;;;27.55;67.18
36798;BME280;22748;8.426;99.512;2023-01-05T00:57:14;100976.47;;;27.58;67.33
36798;BME280;22748;8.426;99.512;2023-01-05T00:59:44;100983.91;;;27.56;67.21
36798;BME280;22748;8.426;99.512;2023-01-05T01:02:14;100982.88;;;27.57;67.24
36798;BME280;22748;8.426;99.512;2023-01-05T01:04:43;100990.53;;;27.60;67.13
36798;BME280;22748;8.426;99.512;2023-01-05T01:07:14;100987.63;;;27.55;67.08
36798;BME280;22748;8.426;99.512;2023-01-05T01:09:45;100996.94;;;27.59;66.76
36798;BME280;22748;8.426;99.512;2023-01-05T01:12:15;100997.59;;;27.61;67.27
36798;BME280;22748;8.426;99.512;2023-01-05T01:14:46;101001.28;;;27.60;67.34
36798;BME280;22748;8.426;99.512;2023-01-05T01:17:16;101001.91;;;27.62;67.10
36798;BME280;22748;8.426;99.512;2023-01-05T01:19:45;101013.94;;;27.66;67.43
36798;BME280;22748;8.426;99.512;2023-01-05T01:22:15;101008.56;;;27.66;67.83
36798;BME280;22748;8.426;99.512;2023-01-05T01:24:49;101012.06;;;27.67;67.41
36798;BME280;22748;8.426;99.512;2023-01-05T01:27:20;101016.22;;;27.69;67.89
36798;BME280;22748;8.426;99.512;2023-01-05T01:29:51;101016.69;;;27.73;67.95
36798;BME280;22748;8.426;99.512;2023-01-05T01:32:21;101017.13;;;27.77;67.92
36798;BME280;22748;8.426;99.512;2023-01-05T01:34:52;101019.41;;;27.80;68.16
36798;BME280;22748;8.426;99.512;2023-01-05T01:37:23;101024.53;;;27.75;68.48
36798;BME280;22748;8.426;99.512;2023-01-05T01:39:57;101021.69;;;27.83;68.09
36798;BME280;22748;8.426;99.512;2023-01-05T01:42:28;101022.19;;;27.86;68.52
36798;BME280;22748;8.426;99.512;2023-01-05T01:44:59;101025.97;;;27.92;68.77
36798;BME280;22748;8.426;99.512;2023-01-05T01:47:37;101031.72;;;27.89;68.49
36798;BME280;22748;8.426;99.512;2023-01-05T01:50:15;101028.84;;;27.90;68.47
36798;BME280;22748;8.426;99.512;2023-01-05T01:52:49;101029.09;;;27.96;67.71
36798;BME280;22748;8.426;99.512;2023-01-05T01:55:26;101024.81;;;28.01;67.74
36798;BME280;22748;8.426;99.512;2023-01-05T01:57:57;101029.78;;;28.04;67.93
36798;BME280;22748;8.426;99.512;2023-01-05T02:00:31;101026.09;;;28.05;67.58
36798;BME280;22748;8.426;99.512;2023-01-05T02:03:02;101025.69;;;28.08;67.32
36798;BME280;22748;8.426;99.512;2023-01-05T02:05:34;101028.63;;;28.14;67.50
36798;BME280;22748;8.426;99.512;2023-01-05T02:08:10;101042.28;;;28.19;67.28
36798;BME280;22748;8.426;99.512;2023-01-05T02:10:56;101033.84;;;28.22;67.33
36798;BME280;22748;8.426;99.512;2023-01-05T02:13:42;101035.34;;;28.24;66.84
36798;BME280;22748;8.426;99.512;2023-01-05T02:16:23;101033.88;;;28.28;67.00
36798;BME280;22748;8.426;99.512;2023-01-05T02:21:59;101034.44;;;28.45;66.57
36798;BME280;22748;8.426;99.512;2023-01-05T02:24:55;101039.75;;;28.39;66.22
36798;BME280;22748;8.426;99.512;2023-01-05T02:27:38;101043.53;;;28.44;65.22
36798;BME280;22748;8.426;99.512;2023-01-05T02:33:24;101045.81;;;28.47;64.77
36798;BME280;22748;8.426;99.512;2023-01-05T02:36:03;101043.47;;;28.59;64.01
36798;BME280;22748;8.426;99.512;2023-01-05T02:38:48;101043.88;;;28.63;63.62
36798;BME280;22748;8.426;99.512;2023-01-05T02:41:25;101041.44;;;28.68;63.46
36798;BME280;22748;8.426;99.512;2023-01-05T02:43:59;101035.63;;;28.64;62.91
36798;BME280;22748;8.426;99.512;2023-01-05T02:46:30;101050.50;;;28.67;63.84
36798;BME280;22748;8.426;99.512;2023-01-05T02:49:01;101039.75;;;28.67;63.16
36798;BME280;22748;8.426;99.512;2023-01-05T02:51:36;101039.31;;;28.63;63.15
36798;BME280;22748;8.426;99.512;2023-01-05T02:54:14;101040.56;;;28.61;63.11
36798;BME280;22748;8.426;99.512;2023-01-05T02:56:50;101030.28;;;28.71;62.36
36798;BME280;22748;8.426;99.512;2023-01-05T02:59:25;101033.59;;;28.73;62.19
36798;BME280;22748;8.426;99.512;2023-01-05T03:02:00;101043.97;;;28.83;61.79
36798;BME280;22748;8.426;99.512;2023-01-05T03:04:37;101039.25;;;28.85;61.41
36798;BME280;22748;8.426;99.512;2023-01-05T03:07:14;101044.88;;;28.90;61.71
36798;BME280;22748;8.426;99.512;2023-01-05T03:09:45;101046.50;;;28.91;61.65
36798;BME280;22748;8.426;99.512;2023-01-05T03:12:21;101049.47;;;29.03;61.14
36798;BME280;22748;8.426;99.512;2023-01-05T03:15:09;101040.38;;;29.04;61.12
36798;BME280;22748;8.426;99.512;2023-01-05T03:17:47;101043.03;;;28.97;60.38
36798;BME280;22748;8.426;99.512;2023-01-05T03:20:23;101041.63;;;29.08;59.70
36798;BME280;22748;8.426;99.512;2023-01-05T03:22:54;101043.34;;;29.16;59.58
36798;BME280;22748;8.426;99.512;2023-01-05T03:25:40;101062.00;;;29.24;59.86
36798;BME280;22748;8.426;99.512;2023-01-05T03:28:28;101062.41;;;29.21;59.43
36798;BME280;22748;8.426;99.512;2023-01-05T03:31:19;101048.34;;;29.25;59.25
36798;BME280;22748;8.426;99.512;2023-01-05T03:34:10;101046.28;;;29.27;58.60
36798;BME280;22748;8.426;99.512;2023-01-05T03:37:06;101041.09;;;29.26;58.59
36798;BME280;22748;8.426;99.512;2023-01-05T03:39:49;101043.00;;;29.39;58.22
36798;BME280;22748;8.426;99.512;2023-01-05T03:42:27;101039.69;;;29.37;58.02
36798;BME280;22748;8.426;99.512;2023-01-05T03:45:06;101036.81;;;29.38;57.92
36798;BME280;22748;8.426;99.512;2023-01-05T03:47:42;101040.94;;;29.41;58.14
36798;BME280;22748;8.426;99.512;2023-01-05T03:50:23;101031.03;;;29.48;57.24
36798;BME280;22748;8.426;99.512;2023-01-05T03:53:06;101030.81;;;29.49;56.46
36798;BME280;22748;8.426;99.512;2023-01-05T03:55:37;101022.56;;;29.51;56.71
36798;BME280;22748;8.426;99.512;2023-01-05T03:58:09;101025.88;;;29.60;56.62
36798;BME280;22748;8.426;99.512;2023-01-05T04:00:43;101021.13;;;29.55;56.84
36798;BME280;22748;8.426;99.512;2023-01-05T04:03:15;101019.25;;;29.62;56.88
36798;BME280;22748;8.426;99.512;2023-01-05T04:05:44;101019.88;;;29.64;57.56
36798;BME280;22748;8.426;99.512;2023-01-05T04:08:17;101010.19;;;29.70;56.39
36798;BME280;22748;8.426;99.512;2023-01-05T04:10:51;101003.59;;;29.72;56.62
36798;BME280;22748;8.426;99.512;2023-01-05T04:13:22;100989.50;;;29.84;56.29
36798;BME280;22748;8.426;99.512;2023-01-05T04:15:54;100978.31;;;29.87;56.47
36798;BME280;22748;8.426;99.512;2023-01-05T04:18:26;100988.06;;;29.88;56.21
36798;BME280;22748;8.426;99.512;2023-01-05T04:20:59;100978.94;;;29.89;56.77
36798;BME280;22748;8.426;99.512;2023-01-05T04:23:31;100978.09;;;29.88;56.50
36798;BME280;22748;8.426;99.512;2023-01-05T04:26:02;100964.84;;;29.87;56.05
36798;BME280;22748;8.426;99.512;2023-01-05T04:28:32;100959.47;;;29.87;55.99
36798;BME280;22748;8.426;99.512;2023-01-05T04:31:03;100956.97;;;29.92;55.92
36798;BME280;22748;8.426;99.512;2023-01-05T04:33:32;100958.19;;;29.96;55.91
36798;BME280;22748;8.426;99.512;2023-01-05T04:36:02;100955.50;;;30.09;56.35
36798;BME280;22748;8.426;99.512;2023-01-05T04:38:33;100942.47;;;30.06;56.11
36798;BME280;22748;8.426;99.512;2023-01-05T04:41:03;100939.94;;;30.11;55.66
36798;BME280;22748;8.426;99.512;2023-01-05T04:43:34;100938.47;;;30.22;55.25
36798;BME280;22748;8.426;99.512;2023-01-05T04:46:05;100936.00;;;30.27;55.22
36798;BME280;22748;8.426;99.512;2023-01-05T04:48:35;100934.16;;;30.28;54.88
36798;BME280;22748;8.426;99.512;2023-01-05T04:51:06;100933.09;;;30.29;54.71
36798;BME280;22748;8.426;99.512;2023-01-05T04:53:37;100932.28;;;30.28;55.25
36798;BME280;22748;8.426;99.512;2023-01-05T04:56:07;100938.28;;;30.37;54.35
36798;BME280;22748;8.426;99.512;2023-01-05T04:58:38;100927.47;;;30.44;53.72
36798;BME280;22748;8.426;99.512;2023-01-05T05:01:09;100917.50;;;30.51;53.92
36798;BME280;22748;8.426;99.512;2023-01-05T05:03:39;100915.81;;;30.57;54.23
36798;BME280;22748;8.426;99.512;2023-01-05T05:06:10;100911.66;;;30.61;53.08
36798;BME280;22748;8.426;99.512;2023-01-05T05:08:42;100907.91;;;30.62;53.35
36798;BME280;22748;8.426;99.512;2023-01-05T05:11:13;100904.34;;;30.68;53.72
36798;BME280;22748;8.426;99.512;2023-01-05T05:13:44;100899.16;;;30.73;53.12
36798;BME280;22748;8.426;99.512;2023-01-05T05:16:15;100888.19;;;30.68;53.31
36798;BME280;22748;8.426;99.512;2023-01-05T05:18:47;100892.13;;;30.65;52.72
36798;BME280;22748;8.426;99.512;2023-01-05T05:21:16;100890.91;;;30.61;52.87
36798;BME280;22748;8.426;99.512;2023-01-05T05:23:48;100885.94;;;30.65;53.00
36798;BME280;22748;8.426;99.512;2023-01-05T05:26:17;100875.94;;;30.72;52.32
36798;BME280;22748;8.426;99.512;2023-01-05T05:28:47;100868.91;;;30.71;53.15
36798;BME280;22748;8.426;99.512;2023-01-05T05:31:16;100866.56;;;30.74;52.25
36798;BME280;22748;8.426;99.512;2023-01-05T05:33:47;100865.34;;;30.77;51.97
36798;BME280;22748;8.426;99.512;2023-01-05T05:36:18;100851.28;;;30.68;51.94
36798;BME280;22748;8.426;99.512;2023-01-05T05:38:49;100840.88;;;30.72;51.77
36798;BME280;22748;8.426;99.512;2023-01-05T05:41:20;100843.56;;;30.72;51.86
36798;BME280;22748;8.426;99.512;2023-01-05T05:43:53;100836.53;;;30.71;50.88
36798;BME280;22748;8.426;99.512;2023-01-05T05:46:31;100823.19;;;30.83;51.34
36798;BME280;22748;8.426;99.512;2023-01-05T05:49:02;100833.53;;;30.92;50.87
36798;BME280;22748;8.426;99.512;2023-01-05T05:51:35;100816.03;;;31.02;50.50
36798;BME280;22748;8.426;99.512;2023-01-05T05:54:06;100822.03;;;31.04;50.68
36798;BME280;22748;8.426;99.512;2023-01-05T05:56:36;100812.63;;;31.13;50.58
36798;BME280;22748;8.426;99.512;2023-01-05T05:59:06;100805.59;;;31.12;50.24
36798;BME280;22748;8.426;99.512;2023-01-05T06:01:35;100800.56;;;31.15;50.74
36798;BME280;22748;8.426;99.512;2023-01-05T06:04:06;100801.03;;;31.12;51.01
36798;BME280;22748;8.426;99.512;2023-01-05T06:06:40;100791.88;;;31.13;50.38
36798;BME280;22748;8.426;99.512;2023-01-05T06:09:13;100800.19;;;31.12;50.04
36798;BME280;22748;8.426;99.512;2023-01-05T06:11:43;100788.19;;;31.08;50.61
36798;BME280;22748;8.426;99.512;2023-01-05T06:14:13;100780.53;;;31.05;50.17
36798;BME280;22748;8.426;99.512;2023-01-05T06:16:42;100780.25;;;31.13;49.91
36798;BME280;22748;8.426;99.512;2023-01-05T06:19:12;100768.59;;;31.19;49.68
36798;BME280;22748;8.426;99.512;2023-01-05T06:21:42;100766.03;;;31.24;49.92
36798;BME280;22748;8.426;99.512;2023-01-05T06:24:14;100762.66;;;31.29;49.90
36798;BME280;22748;8.426;99.512;2023-01-05T06:26:44;100759.31;;;31.33;49.90
36798;BME280;22748;8.426;99.512;2023-01-05T06:29:14;100750.78;;;31.36;50.01
36798;BME280;22748;8.426;99.512;2023-01-05T06:31:43;100747.63;;;31.40;49.60
36798;BME280;22748;8.426;99.512;2023-01-05T06:34:13;100742.22;;;31.21;50.21
36798;BME280;22748;8.426;99.512;2023-01-05T06:36:44;100738.63;;;31.27;50.06
36798;BME280;22748;8.426;99.512;2023-01-05T06:39:16;100732.84;;;31.24;49.59
36798;BME280;22748;8.426;99.512;2023-01-05T06:41:46;100723.19;;;31.34;49.43
36798;BME280;22748;8.426;99.512;2023-01-05T06:44:15;100716.13;;;31.33;49.46
36798;BME280;22748;8.426;99.512;2023-01-05T06:46:47;100714.03;;;31.35;49.43
36798;BME280;22748;8.426;99.512;2023-01-05T06:49:17;100703.78;;;31.26;49.59
36798;BME280;22748;8.426;99.512;2023-01-05T06:51:46;100696.78;;;31.18;50.07
36798;BME280;22748;8.426;99.512;2023-01-05T06:54:18;100693.38;;;31.29;49.93
36798;BME280;22748;8.426;99.512;2023-01-05T06:56:48;100680.84;;;31.35;49.60
36798;BME280;22748;8.426;99.512;2023-01-05T06:59:17;100678.69;;;31.44;49.56
36798;BME280;22748;8.426;99.512;2023-01-05T07:01:48;100667.25;;;31.42;49.94
36798;BME280;22748;8.426;99.512;2023-01-05T07:04:18;100672.84;;;31.47;49.92
36798;BME280;22748;8.426;99.512;2023-01-05T07:06:50;100660.53;;;31.51;49.88
36798;BME280;22748;8.426;99.512;2023-01-05T07:09:25;100669.41;;;31.58;49.46
36798;BME280;22748;8.426;99.512;2023-01-05T07:11:56;100657.19;;;31.55;49.98
36798;BME280;22748;8.426;99.512;2023-01-05T07:14:27;100658.22;;;31.54;49.72
36798;BME280;22748;8.426;99.512;2023-01-05T07:16:56;100654.47;;;31.55;49.34
36798;BME280;22748;8.426;99.512;2023-01-05T07:19:26;100650.72;;;31.56;48.84
36798;BME280;22748;8.426;99.512;2023-01-05T07:21:57;100647.81;;;31.58;49.02
36798;BME280;22748;8.426;99.512;2023-01-05T07:24:28;100643.13;;;31.65;49.21
36798;BME280;22748;8.426;99.512;2023-01-05T07:26:58;100632.94;;;31.67;48.76
36798;BME280;22748;8.426;99.512;2023-01-05T07:29:29;100627.41;;;31.62;49.21
36798;BME280;22748;8.426;99.512;2023-01-05T07:31:59;100624.09;;;31.60;49.03
36798;BME280;22748;8.426;99.512;2023-01-05T07:34:28;100621.53;;;31.65;48.11
36798;BME280;22748;8.426;99.512;2023-01-05T07:36:58;100623.19;;;31.66;48.49
36798;BME280;22748;8.426;99.512;2023-01-05T07:39:29;100619.44;;;31.67;48.84
36798;BME280;22748;8.426;99.512;2023-01-05T07:42:00;100622.53;;;31.52;48.34
36798;BME280;22748;8.426;99.512;2023-01-05T07:44:28;100614.66;;;31.51;48.89
36798;BME280;22748;8.426;99.512;2023-01-05T07:46:59;100619.13;;;31.57;48.17
36798;BME280;22748;8.426;99.512;2023-01-05T07:49:31;100615.63;;;31.56;47.97
36798;BME280;22748;8.426;99.512;2023-01-05T07:52:02;100606.84;;;31.61;47.85
36798;BME280;22748;8.426;99.512;2023-01-05T07:54:35;100608.72;;;31.61;48.03
36798;BME280;22748;8.426;99.512;2023-01-05T07:57:06;100600.25;;;31.57;48.57
36798;BME280;22748;8.426;99.512;2023-01-05T07:59:37;100603.69;;;31.64;48.58
36798;BME280;22748;8.426;99.512;2023-01-05T08:02:09;100608.31;;;31.75;48.62
36798;BME280;22748;8.426;99.512;2023-01-05T08:04:40;100592.47;;;31.79;49.10
36798;BME280;22748;8.426;99.512;2023-01-05T08:07:09;100590.84;;;31.78;48.54
36798;BME280;22748;8.426;99.512;2023-01-05T08:09:42;100583.91;;;31.82;48.88
36798;BME280;22748;8.426;99.512;2023-01-05T08:12:25;100585.72;;;31.88;48.45
36798;BME280;22748;8.426;99.512;2023-01-05T08:14:57;100580.53;;;31.87;48.94
36798;BME280;22748;8.426;99.512;2023-01-05T08:17:27;100585.44;;;31.90;48.47
36798;BME280;22748;8.426;99.512;2023-01-05T08:19:56;100574.66;;;31.90;49.00
36798;BME280;22748;8.426;99.512;2023-01-05T08:22:26;100587.56;;;31.88;48.45
36798;BME280;22748;8.426;99.512;2023-01-05T08:24:58;100584.41;;;31.91;48.49
36798;BME280;22748;8.426;99.512;2023-01-05T08:27:29;100574.91;;;31.88;48.80
36798;BME280;22748;8.426;99.512;2023-01-05T08:30:00;100578.41;;;31.89;48.29
36798;BME280;22748;8.426;99.512;2023-01-05T08:32:34;100573.03;;;31.89;48.27
36798;BME280;22748;8.426;99.512;2023-01-05T08:35:07;100575.25;;;31.92;48.05
36798;BME280;22748;8.426;99.512;2023-01-05T08:37:39;100579.59;;;31.93;47.74
36798;BME280;22748;8.426;99.512;2023-01-05T08:40:15;100577.94;;;31.92;47.65
36798;BME280;22748;8.426;99.512;2023-01-05T08:42:45;100582.16;;;31.88;48.00
36798;BME280;22748;8.426;99.512;2023-01-05T08:45:15;100579.00;;;31.91;47.76
36798;BME280;22748;8.426;99.512;2023-01-05T08:47:48;100575.03;;;31.93;47.92
36798;BME280;22748;8.426;99.512;2023-01-05T08:50:19;100575.59;;;31.84;48.13
36798;BME280;22748;8.426;99.512;2023-01-05T08:52:50;100589.09;;;31.84;48.51
36798;BME280;22748;8.426;99.512;2023-01-05T08:55:21;100595.06;;;31.86;48.42
36798;BME280;22748;8.426;99.512;2023-01-05T08:57:51;100585.72;;;31.88;48.05
36798;BME280;22748;8.426;99.512;2023-01-05T09:00:23;100585.00;;;31.93;48.24
36798;BME280;22748;8.426;99.512;2023-01-05T09:02:55;100586.19;;;31.97;47.90
36798;BME280;22748;8.426;99.512;2023-01-05T09:05:25;100582.47;;;31.98;48.35
36798;BME280;22748;8.426;99.512;2023-01-05T09:07:55;100585.75;;;32.00;48.03
36798;BME280;22748;8.426;99.512;2023-01-05T09:10:26;100589.03;;;32.02;47.76
36798;BME280;22748;8.426;99.512;2023-01-05T09:12:56;100589.03;;;32.02;47.70
36798;BME280;22748;8.426;99.512;2023-01-05T09:15:26;100595.28;;;32.03;47.77
36798;BME280;22748;8.426;99.512;2023-01-05T09:17:56;100591.38;;;31.98;47.36
36798;BME280;22748;8.426;99.512;2023-01-05T09:20:26;100588.31;;;31.95;47.71
36798;BME280;22748;8.426;99.512;2023-01-05T09:22:56;100589.00;;;31.90;47.87
36798;BME280;22748;8.426;99.512;2023-01-05T09:25:29;100592.84;;;31.94;48.53
36798;BME280;22748;8.426;99.512;2023-01-05T09:27:58;100595.56;;;31.94;48.17
36798;BME280;22748;8.426;99.512;2023-01-05T09:30:28;100604.06;;;31.98;48.58
36798;BME280;22748;8.426;99.512;2023-01-05T09:32:58;100606.63;;;31.93;48.42
36798;BME280;22748;8.426;99.512;2023-01-05T09:35:31;100606.38;;;31.94;48.63
36798;BME280;22748;8.426;99.512;2023-01-05T09:38:02;100601.06;;;31.88;49.07
36798;BME280;22748;8.426;99.512;2023-01-05T09:40:39;100602.13;;;31.87;48.57
36798;BME280;22748;8.426;99.512;2023-01-05T09:43:16;100606.84;;;31.61;49.27
36798;BME280;22748;8.426;99.512;2023-01-05T09:45:49;100613.63;;;31.52;49.20
36798;BME280;22748;8.426;99.512;2023-01-05T09:48:20;100613.56;;;31.70;49.27
36798;BME280;22748;8.426;99.512;2023-01-05T09:50:49;100605.25;;;31.72;49.12
36798;BME280;22748;8.426;99.512;2023-01-05T09:53:26;100614.31;;;31.77;48.63
36798;BME280;22748;8.426;99.512;2023-01-05T09:55:59;100617.31;;;31.69;48.86
36798;BME280;22748;8.426;99.512;2023-01-05T09:58:34;100612.44;;;31.78;48.53
36798;BME280;22748;8.426;99.512;2023-01-05T10:01:08;100618.81;;;31.84;48.81
36798;BME280;22748;8.426;99.512;2023-01-05T10:03:46;100612.34;;;31.85;48.73
36798;BME280;22748;8.426;99.512;2023-01-05T10:06:26;100613.06;;;31.92;49.03
36798;BME280;22748;8.426;99.512;2023-01-05T10:08:58;100631.53;;;31.95;48.53
36798;BME280;22748;8.426;99.512;2023-01-05T10:11:34;100616.81;;;31.91;48.45
36798;BME280;22748;8.426;99.512;2023-01-05T10:14:21;100630.88;;;31.81;48.94
36798;BME280;22748;8.426;99.512;2023-01-05T10:16:53;100630.03;;;31.81;48.98
36798;BME280;22748;8.426;99.512;2023-01-05T10:19:23;100635.00;;;31.84;48.90
36798;BME280;22748;8.426;99.512;2023-01-05T10:22:00;100635.81;;;31.84;48.65
36798;BME280;22748;8.426;99.512;2023-01-05T10:24:41;100642.84;;;31.85;48.88
36798;BME280;22748;8.426;99.512;2023-01-05T10:27:22;100652.38;;;31.88;49.27
36798;BME280;22748;8.426;99.512;2023-01-05T10:30:02;100649.22;;;31.91;49.34
36798;BME280;22748;8.426;99.512;2023-01-05T10:32:48;100659.44;;;31.89;49.69
36798;BME280;22748;8.426;99.512;2023-01-05T10:35:36;100656.13;;;31.87;49.45
36798;BME280;22748;8.426;99.512;2023-01-05T10:38:20;100654.94;;;31.83;49.34
36798;BME280;22748;8.426;99.512;2023-01-05T10:41:00;100664.72;;;31.84;49.20
36798;BME280;22748;8.426;99.512;2023-01-05T10:43:53;100663.53;;;31.80;49.06
36798;BME280;22748;8.426;99.512;2023-01-05T10:46:28;100667.84;;;31.81;49.35
36798;BME280;22748;8.426;99.512;2023-01-05T10:48:59;100664.47;;;31.85;49.41
36798;BME280;22748;8.426;99.512;2023-01-05T10:51:31;100673.97;;;31.88;49.50
36798;BME280;22748;8.426;99.512;2023-01-05T10:54:04;100678.94;;;31.91;49.48
36798;BME280;22748;8.426;99.512;2023-01-05T10:56:33;100683.88;;;31.94;49.62
36798;BME280;22748;8.426;99.512;2023-01-05T10:59:13;100679.38;;;31.88;49.67
36798;BME280;22748;8.426;99.512;2023-01-05T11:01:43;100685.25;;;31.85;49.74
36798;BME280;22748;8.426;99.512;2023-01-05T11:04:16;100691.13;;;31.82;49.70
36798;BME280;22748;8.426;99.512;2023-01-05T11:06:47;100696.88;;;31.85;49.90
36798;BME280;22748;8.426;99.512;2023-01-05T11:09:18;100701.25;;;31.86;49.75
36798;BME280;22748;8.426;99.512;2023-01-05T11:11:54;100711.78;;;31.88;49.43
36798;BME280;22748;8.426;99.512;2023-01-05T11:14:30;100710.75;;;31.89;49.40
36798;BME280;22748;8.426;99.512;2023-01-05T11:17:03;100717.19;;;31.88;49.80
36798;BME280;22748;8.426;99.512;2023-01-05T11:19:40;100715.56;;;31.87;49.76
36798;BME280;22748;8.426;99.512;2023-01-05T11:22:27;100720.22;;;31.80;49.96
36798;BME280;22748;8.426;99.512;2023-01-05T11:25:22;100708.22;;;31.75;50.18
36798;BME280;22748;8.426;99.512;2023-01-05T11:28:10;100718.66;;;31.72;50.47
36798;BME280;22748;8.426;99.512;2023-01-05T11:30:54;100721.56;;;31.70;50.50
36798;BME280;22748;8.426;99.512;2023-01-05T11:33:28;100728.03;;;31.69;50.36
36798;BME280;22748;8.426;99.512;2023-01-05T11:36:02;100728.25;;;31.68;50.50
36798;BME280;22748;8.426;99.512;2023-01-05T11:38:34;100728.25;;;31.68;50.44
36798;BME280;22748;8.426;99.512;2023-01-05T11:41:10;100734.47;;;31.68;50.72
36798;BME280;22748;8.426;99.512;2023-01-05T11:43:41;100729.06;;;31.68;50.61
36798;BME280;22748;8.426;99.512;2023-01-05T11:46:18;100735.53;;;31.67;50.59
36798;BME280;22748;8.426;99.512;2023-01-05T11:48:50;100736.13;;;31.69;50.56
36798;BME280;22748;8.426;99.512;2023-01-05T11:51:34;100738.22;;;31.67;50.43
36798;BME280;22748;8.426;99.512;2023-01-05T11:54:29;100741.91;;;31.54;50.74
36798;BME280;22748;8.426;99.512;2023-01-05T11:57:13;100740.69;;;31.50;50.82
36798;BME280;22748;8.426;99.512;2023-01-05T11:59:44;100746.75;;;31.46;51.26
36798;BME280;22748;8.426;99.512;2023-01-05T12:02:37;100749.91;;;31.43;51.27
36798;BME280;22748;8.426;99.512;2023-01-05T12:05:29;100753.03;;;31.40;51.47
36798;BME280;22748;8.426;99.512;2023-01-05T12:08:07;100760.25;;;31.46;51.18
36798;BME280;22748;8.426;99.512;2023-01-05T12:10:56;100768.34;;;31.46;51.25
36798;BME280;22748;8.426;99.512;2023-01-05T12:13:47;100767.31;;;31.47;51.14
36798;BME280;22748;8.426;99.512;2023-01-05T12:16:24;100769.16;;;31.46;51.11
36798;BME280;22748;8.426;99.512;2023-01-05T12:22:10;100785.75;;;31.50;51.26
36798;BME280;22748;8.426;99.512;2023-01-05T12:24:49;100789.53;;;31.49;51.26
36798;BME280;22748;8.426;99.512;2023-01-05T12:27:33;100790.56;;;31.48;51.08
36798;BME280;22748;8.426;99.512;2023-01-05T12:30:24;100795.34;;;31.46;51.16
36798;BME280;22748;8.426;99.512;2023-01-05T12:33:07;100800.97;;;31.44;51.42
36798;BME280;22748;8.426;99.512;2023-01-05T12:35:55;100813.63;;;31.44;51.60
36798;BME280;22748;8.426;99.512;2023-01-05T12:38:36;100812.00;;;31.43;51.44
36798;BME280;22748;8.426;99.512;2023-01-05T12:41:27;100815.69;;;31.42;51.48
36798;BME280;22748;8.426;99.512;2023-01-05T12:47:06;100822.38;;;31.39;51.74
36798;BME280;22748;8.426;99.512;2023-01-05T12:49:47;100832.34;;;31.39;51.38
36798;BME280;22748;8.426;99.512;2023-01-05T12:52:25;100825.72;;;31.34;51.39
36798;BME280;22748;8.426;99.512;2023-01-05T12:55:03;100832.78;;;31.35;51.91
36798;BME280;22748;8.426;99.512;2023-01-05T12:57:39;100829.91;;;31.30;52.00
36798;BME280;22748;8.426;99.512;2023-01-05T13:00:14;100837.81;;;31.32;51.65
36798;BME280;22748;8.426;99.512;2023-01-05T13:02:48;100843.41;;;31.30;51.60
36798;BME280;22748;8.426;99.512;2023-01-05T13:05:26;100845.28;;;31.30;51.95
36798;BME280;22748;8.426;99.512;2023-01-05T13:08:02;100854.66;;;31.27;51.78
36798;BME280;22748;8.426;99.512;2023-01-05T13:10:43;100847.84;;;31.18;52.43
36798;BME280;22748;8.426;99.512;2023-01-05T13:13:15;100860.75;;;31.16;52.49
36798;BME280;22748;8.426;99.512;2023-01-05T13:15:53;100861.19;;;31.13;52.44
36798;BME280;22748;8.426;99.512;2023-01-05T13:18:25;100865.38;;;31.09;52.39
36798;BME280;22748;8.426;99.512;2023-01-05T13:20:58;100872.69;;;31.02;52.50
36798;BME280;22748;8.426;99.512;2023-01-05T13:23:35;100877.88;;;31.03;52.79
36798;BME280;22748;8.426;99.512;2023-01-05T13:26:10;100877.22;;;31.08;52.45
36798;BME280;22748;8.426;99.512;2023-01-05T13:28:45;100884.25;;;31.09;52.46
36798;BME280;22748;8.426;99.512;2023-01-05T13:31:33;100884.84;;;31.11;53.05
36798;BME280;22748;8.426;99.512;2023-01-05T13:34:10;100895.81;;;31.16;52.66
36798;BME280;22748;8.426;99.512;2023-01-05T13:37:09;100899.13;;;31.18;52.51
36798;BME280;22748;8.426;99.512;2023-01-05T13:39:57;100899.97;;;31.19;52.76